TFM - Tactical Decision Aid (Experimental) INFO Settings

ID: Runway Winds: CIG/VIS Threshold: METAR Board: Map:

kiad - Washington-Dulles Intl

Updated at: 0327 UTC 30 Jun 2015
Latest TAF at: 0245 UTC 30 Jun 2015

TAF Board

Time0252Z30/04Z30/05Z30/06Z30/07Z30/08Z30/09Z30/10Z30/11Z30/12Z30/13Z30/14Z30/15Z30/16Z
TypeOBSPRVLPRVLPRVLPRVLPRVLPRVLPRVLPRVLPRVLPRVLPRVLPRVLPRVL
VIS10>6>6>6>6>6>6>6>6>6>6>6>6>6
CIG----------------909090909090
CoverSCTSCTSCTSCTSCTSCTSCTSCTBKNBKNBKNBKNBKNBKN
FltCatVFRVFRVFRVFRVFRVFRVFRVFRVFRVFRVFRVFRVFRVFR
WX----------------------------
WDir150160160160160160160160180180180180180180
WSpd55555555999999
WGst----------------------------
TAF
KIAD 300245Z 3003/0106 16005KT P6SM SCT100
  FM301100 18009KT P6SM BKN090
  FM301900 19011G18KT P6SM VCTS BKN050CB
  FM302300 20007KT P6SM VCTS BKN050CB
  FM010300 23005KT P6SM SCT070


METAR
KIAD 300252Z 15005KT 10SM FEW120 SCT250 22/14 A2994 RMK AO2 SLP134 T02170139 50002

TAF/METAR Board Legend

Potential Impact
  None Marginal Slight Moderate High
Visibility (sm) > ≤X≤ <
Ceiling (100 ft) > ≤X≤ <
Wind Speed (kt) <10 10≤X<20 20≤X<30 ≥30
Wind Gust (kt) <15 15≤X<25 25≤X<35 ≥35
Weather No Wx Reported VCTS -TS,-FZRA TS,FZRA +TS,+FZRA




Notice: Undefined index: kiad in /caws/site/new_awc/application/modules/trafficflowmgmt/controllers/TdaController.php on line 188

Notice: Undefined index: kiad in /caws/site/new_awc/application/modules/trafficflowmgmt/controllers/TdaController.php on line 189